createdAt,value
2023-03-22T00:00:39.987Z,1.85
2023-03-22T00:02:42.845Z,1.82
2023-03-22T00:04:45.453Z,1.79
2023-03-22T00:06:48.095Z,1.76
2023-03-22T00:08:52.343Z,1.74
2023-03-22T00:10:54.873Z,1.72
2023-03-22T00:12:57.643Z,1.72
2023-03-22T00:15:00.371Z,1.68
2023-03-22T00:17:02.875Z,1.69
2023-03-22T00:19:05.450Z,1.68
2023-03-22T00:21:12.660Z,1.65
2023-03-22T00:23:15.190Z,1.62
2023-03-22T00:25:18.310Z,1.62
2023-03-22T00:27:20.888Z,1.61
2023-03-22T00:29:24.264Z,1.59
2023-03-22T00:31:26.926Z,1.59
2023-03-22T00:33:30.581Z,1.56
2023-03-22T00:35:33.887Z,1.57
2023-03-22T00:37:38.706Z,1.54
2023-03-22T00:39:41.185Z,1.56
2023-03-22T00:41:43.766Z,1.56
2023-03-22T00:43:47.474Z,1.56
2023-03-22T00:45:50.081Z,1.54
2023-03-22T00:47:52.784Z,1.50
2023-03-22T00:49:55.698Z,1.49
2023-03-22T00:51:58.250Z,1.43
2023-03-22T00:54:00.815Z,1.46
2023-03-22T00:56:05.089Z,1.45
2023-03-22T00:58:07.529Z,1.46
2023-03-22T01:00:14.042Z,1.43
2023-03-22T01:02:17.602Z,1.42
2023-03-22T01:04:25.964Z,1.44
2023-03-22T01:06:28.611Z,1.42
2023-03-22T01:08:33.616Z,1.42
2023-03-22T01:10:37.920Z,1.37
2023-03-22T01:12:40.535Z,1.38
2023-03-22T01:14:44.372Z,1.36
2023-03-22T01:16:46.902Z,1.34
2023-03-22T01:18:49.427Z,1.35
2023-03-22T01:20:52.542Z,1.36
2023-03-22T01:22:55.135Z,1.29
2023-03-22T01:24:57.592Z,1.33
2023-03-22T01:27:00.573Z,1.32
2023-03-22T01:29:03.075Z,1.31
2023-03-22T01:31:05.845Z,1.27
2023-03-22T01:33:08.400Z,1.26
2023-03-22T01:35:11.222Z,1.26
2023-03-22T01:37:13.938Z,1.24
2023-03-22T01:39:16.792Z,1.21
2023-03-22T01:41:19.339Z,1.20
2023-03-22T01:43:21.894Z,1.20
2023-03-22T01:45:49.580Z,1.19
2023-03-22T01:47:57.935Z,1.19
2023-03-22T01:50:00.623Z,1.17
2023-03-22T01:52:09.169Z,1.16
2023-03-22T01:54:18.467Z,1.13
2023-03-22T01:56:24.059Z,1.12
2023-03-22T01:58:26.866Z,1.10
2023-03-22T02:00:29.643Z,1.04
2023-03-22T02:02:32.118Z,1.04
2023-03-22T02:04:39.116Z,1.00
2023-03-22T02:06:42.724Z,0.97
2023-03-22T02:08:45.544Z,0.98
2023-03-22T02:10:48.290Z,0.94
2023-03-22T02:12:59.502Z,0.85
2023-03-22T02:15:13.392Z,0.80
2023-03-22T02:17:28.361Z,0.77
2023-03-22T02:19:42.513Z,0.74
2023-03-22T02:22:22.050Z,0.70
2023-03-22T02:24:57.085Z,0.67
2023-03-22T02:27:11.163Z,0.66
2023-03-22T02:29:31.645Z,0.62
2023-03-22T02:31:55.426Z,0.58
2023-03-22T02:34:06.997Z,0.57
2023-03-22T02:36:46.665Z,0.58
2023-03-22T02:38:58.265Z,0.57
2023-03-22T02:41:11.523Z,0.57
2023-03-22T02:43:46.387Z,0.58
2023-03-22T02:45:56.818Z,0.57
2023-03-22T02:48:21.058Z,0.60
2023-03-22T02:50:38.706Z,0.62
2023-03-22T02:52:58.778Z,0.62
2023-03-22T02:55:04.416Z,0.63
2023-03-22T02:57:36.880Z,0.63
2023-03-22T02:59:41.152Z,0.64
2023-03-22T03:01:52.309Z,0.56
2023-03-22T03:04:00.164Z,0.56
2023-03-22T03:06:11.024Z,0.58
2023-03-22T03:08:16.081Z,0.54
2023-03-22T03:10:20.828Z,0.55
2023-03-22T03:12:28.288Z,0.55
2023-03-22T03:14:32.806Z,0.54
2023-03-22T03:16:36.837Z,0.55
2023-03-22T03:18:46.344Z,0.59
2023-03-22T03:20:52.395Z,0.63
2023-03-22T03:23:22.075Z,0.65
2023-03-22T03:25:27.757Z,0.67
2023-03-22T03:27:40.862Z,0.69
2023-03-22T03:29:46.202Z,0.72
2023-03-22T03:32:04.779Z,0.73
2023-03-22T03:34:10.735Z,0.73
2023-03-22T03:36:18.130Z,0.76
2023-03-22T03:38:26.648Z,0.83
2023-03-22T03:40:33.324Z,0.88
2023-03-22T03:42:38.639Z,0.96
2023-03-22T03:44:42.076Z,1.02
2023-03-22T03:46:46.118Z,1.09
2023-03-22T03:48:51.690Z,1.15
2023-03-22T03:50:56.514Z,1.22
2023-03-22T03:52:59.878Z,1.40
2023-03-22T03:55:02.585Z,1.47
2023-03-22T03:57:06.029Z,1.57
2023-03-22T03:59:09.281Z,1.60
2023-03-22T04:01:11.854Z,1.65
2023-03-22T04:03:15.229Z,1.66
2023-03-22T04:05:18.483Z,1.63
2023-03-22T04:07:20.966Z,1.65
2023-03-22T04:09:27.039Z,1.69
2023-03-22T04:11:29.519Z,1.76
2023-03-22T04:13:31.957Z,1.81
2023-03-22T04:15:34.553Z,1.89
2023-03-22T04:17:37.984Z,1.94
2023-03-22T04:19:41.537Z,2.03
2023-03-22T04:21:44.070Z,2.13
2023-03-22T04:23:46.954Z,2.22
2023-03-22T04:25:50.574Z,2.32
2023-03-22T04:27:55.936Z,2.37
2023-03-22T04:30:01.110Z,2.42
2023-03-22T04:32:06.107Z,2.52
2023-03-22T04:34:08.688Z,2.59
2023-03-22T04:36:11.513Z,2.60
2023-03-22T04:38:14.838Z,2.65
2023-03-22T04:40:17.510Z,2.72
2023-03-22T04:42:20.992Z,2.78
2023-03-22T04:44:23.511Z,2.80
2023-03-22T04:46:26.668Z,2.84
2023-03-22T04:48:29.726Z,2.87
2023-03-22T04:50:32.201Z,2.91
2023-03-22T04:52:34.835Z,2.97
2023-03-22T04:54:38.065Z,3.02
2023-03-22T04:56:40.613Z,3.07
2023-03-22T04:58:44.102Z,3.16
2023-03-22T05:00:56.636Z,3.23
2023-03-22T05:02:59.473Z,3.29
2023-03-22T05:05:02.106Z,3.39
2023-03-22T05:07:06.270Z,3.44
2023-03-22T05:09:09.366Z,3.58
2023-03-22T05:11:19.511Z,3.69
2023-03-22T05:13:23.871Z,3.79
2023-03-22T05:15:26.442Z,3.93
2023-03-22T05:17:28.899Z,4.08
2023-03-22T05:19:31.540Z,4.30
2023-03-22T05:21:37.080Z,4.40
2023-03-22T05:23:39.955Z,4.58
2023-03-22T05:25:45.319Z,4.75
2023-03-22T05:27:50.345Z,4.93
2023-03-22T05:29:54.939Z,5.11
2023-03-22T05:31:57.389Z,5.13
2023-03-22T05:34:01.692Z,5.12
2023-03-22T05:36:04.283Z,5.09
2023-03-22T05:38:06.938Z,5.11
2023-03-22T05:40:10.274Z,5.13
2023-03-22T05:42:12.767Z,5.21
2023-03-22T05:44:15.615Z,5.25
2023-03-22T05:46:18.130Z,5.28
2023-03-22T05:48:20.887Z,5.30
2023-03-22T05:50:24.597Z,5.40
2023-03-22T05:52:27.163Z,5.44
2023-03-22T05:54:29.710Z,5.50
2023-03-22T05:56:32.218Z,5.62
2023-03-22T05:58:35.245Z,5.62
2023-03-22T06:00:38.668Z,5.65
2023-03-22T06:02:46.301Z,5.65
2023-03-22T06:04:49.869Z,5.68
2023-03-22T06:06:53.995Z,5.69
2023-03-22T06:09:04.336Z,5.75
2023-03-22T06:11:18.662Z,5.81
2023-03-22T06:13:21.882Z,5.85
2023-03-22T06:15:25.155Z,5.83
2023-03-22T06:17:28.313Z,5.78
2023-03-22T06:19:31.451Z,5.77
2023-03-22T06:21:34.052Z,5.71
2023-03-22T06:23:36.561Z,5.60
2023-03-22T06:25:39.106Z,5.62
2023-03-22T06:27:41.564Z,5.59
2023-03-22T06:29:50.816Z,5.59
2023-03-22T06:31:53.374Z,5.54
2023-03-22T06:33:56.621Z,5.52
2023-03-22T06:36:02.096Z,5.49
2023-03-22T06:38:04.733Z,5.45
2023-03-22T06:40:07.990Z,5.49
2023-03-22T06:42:10.959Z,5.56
2023-03-22T06:44:13.877Z,5.60
2023-03-22T06:46:16.974Z,5.53
2023-03-22T06:48:19.734Z,5.46
2023-03-22T06:50:22.522Z,5.43
2023-03-22T06:52:25.487Z,5.34
2023-03-22T06:54:28.461Z,5.27
2023-03-22T06:56:31.185Z,5.24
2023-03-22T06:58:33.979Z,5.21
2023-03-22T07:00:37.261Z,5.19
2023-03-22T07:02:40.103Z,5.20
2023-03-22T07:04:43.021Z,5.18
2023-03-22T07:06:45.797Z,5.16
2023-03-22T07:08:50.755Z,5.09
2023-03-22T07:10:54.263Z,5.01
2023-03-22T07:12:57.624Z,4.99
2023-03-22T07:15:00.446Z,4.97
2023-03-22T07:17:03.366Z,4.94
2023-03-22T07:19:06.264Z,4.94
2023-03-22T07:21:09.092Z,4.91
2023-03-22T07:23:11.932Z,4.93
2023-03-22T07:25:14.810Z,4.91
2023-03-22T07:27:18.504Z,4.81
2023-03-22T07:29:21.771Z,4.68
2023-03-22T07:31:24.681Z,4.56
2023-03-22T07:33:27.556Z,4.50
2023-03-22T07:35:30.587Z,4.33
2023-03-22T07:37:33.424Z,4.28
2023-03-22T07:39:36.252Z,4.23
2023-03-22T07:41:38.981Z,4.21
2023-03-22T07:43:54.048Z,4.12
2023-03-22T07:45:59.432Z,4.08
2023-03-22T07:48:02.208Z,4.00
2023-03-22T07:50:05.997Z,4.02
2023-03-22T07:52:09.085Z,4.09
2023-03-22T07:54:17.757Z,4.18
2023-03-22T07:56:25.541Z,4.27
2023-03-22T07:58:28.269Z,4.24
2023-03-22T08:00:31.545Z,4.27
2023-03-22T08:02:34.283Z,4.24
2023-03-22T08:04:37.575Z,4.22
2023-03-22T08:06:42.883Z,4.28
2023-03-22T08:08:46.222Z,4.33
2023-03-22T08:10:50.970Z,4.33
2023-03-22T08:12:53.642Z,4.35
2023-03-22T08:14:56.482Z,4.43
2023-03-22T08:16:59.152Z,4.44
2023-03-22T08:19:01.895Z,4.43
2023-03-22T08:21:04.869Z,4.49
2023-03-22T08:23:11.544Z,4.54
2023-03-22T08:25:14.719Z,4.61
2023-03-22T08:27:17.534Z,4.61
2023-03-22T08:29:23.415Z,4.60
2023-03-22T08:31:26.580Z,4.66
2023-03-22T08:33:29.503Z,4.78
2023-03-22T08:35:32.878Z,4.88
2023-03-22T08:37:35.958Z,4.86
2023-03-22T08:39:39.020Z,4.80
2023-03-22T08:41:41.790Z,4.94
2023-03-22T08:43:44.557Z,5.08
2023-03-22T08:45:47.975Z,5.20
2023-03-22T08:47:51.145Z,5.28
2023-03-22T08:49:53.936Z,5.32
2023-03-22T08:51:57.977Z,5.18
2023-03-22T08:54:02.420Z,5.15
2023-03-22T08:56:05.760Z,5.04
2023-03-22T08:58:10.428Z,5.05
2023-03-22T09:00:13.965Z,5.08
2023-03-22T09:02:16.891Z,5.13
2023-03-22T09:04:19.635Z,5.15
2023-03-22T09:06:22.660Z,5.09
2023-03-22T09:08:26.285Z,5.09
2023-03-22T09:10:29.748Z,5.09
2023-03-22T09:12:32.491Z,5.03
2023-03-22T09:14:35.842Z,4.99
2023-03-22T09:16:38.771Z,4.88
2023-03-22T09:18:41.545Z,4.87
2023-03-22T09:20:46.192Z,4.89
2023-03-22T09:22:48.876Z,4.96
2023-03-22T09:24:51.574Z,5.07
2023-03-22T09:26:54.350Z,5.22
2023-03-22T09:28:57.040Z,5.36
2023-03-22T09:31:04.941Z,5.43
2023-03-22T09:33:07.639Z,5.53
2023-03-22T09:35:10.829Z,5.58
2023-03-22T09:37:15.083Z,5.58
2023-03-22T09:39:18.008Z,5.57
2023-03-22T09:41:29.724Z,5.55
2023-03-22T09:43:47.048Z,5.46
2023-03-22T09:45:52.314Z,5.41
2023-03-22T09:47:57.236Z,5.41
2023-03-22T09:50:25.029Z,5.54
2023-03-22T09:52:27.831Z,5.53
2023-03-22T09:54:34.697Z,5.57
2023-03-22T09:56:37.538Z,5.64
2023-03-22T09:58:48.856Z,5.70
2023-03-22T10:00:57.762Z,5.67
2023-03-22T10:03:14.842Z,5.70
2023-03-22T10:05:26.853Z,5.59
2023-03-22T10:07:42.687Z,5.43
2023-03-22T10:09:59.494Z,5.40
2023-03-22T10:12:16.778Z,5.53
2023-03-22T10:14:23.739Z,5.59
2023-03-22T10:16:33.414Z,5.81
2023-03-22T10:18:47.485Z,5.91
2023-03-22T10:21:01.309Z,5.93
2023-03-22T10:23:09.513Z,6.08
2023-03-22T10:25:18.142Z,6.10
2023-03-22T10:27:23.325Z,6.22
2023-03-22T10:29:34.882Z,6.35
2023-03-22T10:31:42.493Z,6.57
2023-03-22T10:33:54.029Z,6.78
2023-03-22T10:35:57.732Z,6.86
2023-03-22T10:38:04.846Z,6.78
2023-03-22T10:40:11.623Z,6.74
2023-03-22T10:42:19.319Z,6.76
2023-03-22T10:44:25.011Z,6.91
2023-03-22T10:46:34.020Z,7.03
2023-03-22T10:48:42.059Z,7.06
2023-03-22T10:50:46.159Z,6.95
2023-03-22T10:53:23.371Z,6.84
2023-03-22T10:55:26.768Z,6.78
2023-03-22T10:57:29.609Z,6.70
2023-03-22T10:59:47.715Z,6.60
2023-03-22T11:01:51.774Z,6.49
2023-03-22T11:04:15.882Z,6.45
2023-03-22T11:06:23.922Z,6.37
2023-03-22T11:08:26.657Z,6.34
2023-03-22T11:10:33.719Z,6.33
2023-03-22T11:12:49.680Z,6.38
2023-03-22T11:14:52.946Z,6.53
2023-03-22T11:16:59.908Z,6.68
2023-03-22T11:19:03.481Z,6.70
2023-03-22T11:21:10.340Z,6.66
2023-03-22T11:23:18.210Z,6.71
2023-03-22T11:25:27.771Z,6.76
2023-03-22T11:27:33.327Z,6.84
2023-03-22T11:29:48.324Z,6.76
2023-03-22T11:32:00.438Z,6.84
2023-03-22T11:34:17.613Z,6.90
2023-03-22T11:36:22.517Z,6.91
2023-03-22T11:38:32.523Z,7.07
2023-03-22T11:40:37.129Z,7.05
2023-03-22T11:42:40.115Z,7.06
2023-03-22T11:44:45.231Z,7.11
2023-03-22T11:46:58.461Z,7.10
2023-03-22T11:49:09.836Z,7.12
2023-03-22T11:51:25.913Z,7.15
2023-03-22T11:53:33.885Z,6.98
2023-03-22T11:55:37.359Z,6.89
2023-03-22T11:57:40.890Z,6.78
2023-03-22T12:00:18.444Z,6.64
2023-03-22T12:02:28.785Z,6.77
2023-03-22T12:04:38.214Z,6.93
2023-03-22T12:06:43.115Z,6.86
2023-03-22T12:08:54.775Z,6.74
2023-03-22T12:11:06.658Z,6.75
2023-03-22T12:13:23.047Z,6.88
2023-03-22T12:15:35.747Z,7.01
2023-03-22T12:18:07.860Z,7.24
2023-03-22T12:20:20.530Z,7.47
2023-03-22T12:22:33.297Z,7.71
2023-03-22T12:24:36.113Z,7.88
2023-03-22T12:26:39.544Z,8.03
2023-03-22T12:28:44.138Z,8.16
2023-03-22T12:30:53.900Z,8.35
2023-03-22T12:33:06.869Z,8.42
2023-03-22T12:35:18.222Z,8.48
2023-03-22T12:37:28.030Z,8.53
2023-03-22T12:39:38.430Z,8.63
2023-03-22T12:41:47.062Z,8.64
2023-03-22T12:43:59.123Z,8.63
2023-03-22T12:46:05.654Z,8.73
2023-03-22T12:48:22.632Z,8.82
2023-03-22T12:50:41.136Z,9.02
2023-03-22T12:52:50.892Z,8.97
2023-03-22T12:54:54.635Z,9.09
2023-03-22T12:56:57.437Z,9.29
2023-03-22T12:59:04.798Z,9.40
2023-03-22T13:01:59.484Z,9.46
2023-03-22T13:04:37.205Z,9.66
2023-03-22T13:06:45.678Z,9.91
2023-03-22T13:09:09.956Z,9.97
2023-03-22T13:11:23.438Z,10.08
2023-03-22T13:13:26.660Z,10.11
2023-03-22T13:15:42.611Z,10.02
2023-03-22T13:17:46.971Z,10.08
2023-03-22T13:20:07.988Z,10.20
2023-03-22T13:22:16.949Z,10.36
2023-03-22T13:24:22.734Z,10.41
2023-03-22T13:26:35.255Z,10.47
2023-03-22T13:28:39.099Z,10.60
2023-03-22T13:30:56.683Z,10.55
2023-03-22T13:33:08.820Z,10.23
2023-03-22T13:35:41.416Z,10.15
2023-03-22T13:37:49.564Z,9.99
2023-03-22T13:39:52.237Z,9.90
2023-03-22T13:42:08.008Z,10.01
2023-03-22T13:44:40.827Z,10.02
2023-03-22T13:46:46.878Z,10.23
2023-03-22T13:48:55.423Z,10.19
2023-03-22T13:50:59.549Z,10.25
2023-03-22T13:53:14.780Z,10.22
2023-03-22T13:55:42.634Z,10.32
2023-03-22T13:57:57.025Z,10.38
2023-03-22T14:00:15.756Z,10.45
2023-03-22T14:02:37.488Z,10.44
2023-03-22T14:04:45.803Z,10.09
2023-03-22T14:07:04.588Z,9.64
2023-03-22T14:09:21.105Z,9.21
2023-03-22T14:11:46.272Z,9.09
2023-03-22T14:13:57.712Z,9.04
2023-03-22T14:16:09.998Z,9.16
2023-03-22T14:18:27.357Z,9.14
2023-03-22T14:20:40.417Z,8.97
